Time;durP1;ratioP1;P1;durP2;ratioP2;P2;SDS_P1;SDS_P2;PMS_P1;PMS_P2;Temp;Humidity;BMP_temperature;BMP_pressure;BME280_temperature;BME280_humidity;BME280_pressure;Samples;Min_cycle;Max_cycle;Signal;HPM_P1;HPM_P2
2022/09/26 00:00:47;;;;;;;3.92;2.30;;;14.10;99.90;;;;;;10072628;28;20022;-64
2022/09/26 00:05:38;;;;;;;4.93;2.80;;;14.10;99.90;;;;;;10060563;28;20030;-64
2022/09/26 00:10:29;;;;;;;3.45;2.22;;;14.10;99.90;;;;;;10040624;28;20176;-65
2022/09/26 00:15:21;;;;;;;4.18;2.33;;;14.00;99.90;;;;;;10073127;28;20045;-66
2022/09/26 00:20:11;;;;;;;4.20;2.47;;;14.00;99.90;;;;;;10065558;28;20026;-67
2022/09/26 00:25:03;;;;;;;5.35;3.33;;;14.10;99.90;;;;;;10054808;28;20410;-65
2022/09/26 00:29:54;;;;;;;3.53;2.47;;;14.10;99.90;;;;;;10073789;28;20399;-65
2022/09/26 00:34:45;;;;;;;5.43;3.20;;;14.00;99.90;;;;;;10072143;28;20033;-64
2022/09/26 00:39:35;;;;;;;3.55;2.67;;;14.00;99.90;;;;;;10077111;28;20454;-64
2022/09/26 00:44:45;;;;;;;3.00;2.45;;;14.00;99.90;;;;;;10074534;28;20037;-63
2022/09/26 00:49:41;;;;;;;4.43;1.88;;;13.80;99.90;;;;;;10079367;28;20013;-65
2022/09/26 00:54:33;;;;;;;;;;;13.70;99.90;;;;;;10071421;28;20429;-64
2022/09/26 00:59:28;;;;;;;3.60;1.85;;;13.70;99.90;;;;;;10069029;28;20299;-64
2022/09/26 01:04:19;;;;;;;3.17;2.00;;;13.60;99.90;;;;;;10069191;28;20079;-63
2022/09/26 01:09:13;;;;;;;5.40;2.95;;;13.50;99.90;;;;;;10072008;28;20108;-62
2022/09/26 01:14:06;;;;;;;3.65;2.08;;;13.70;99.90;;;;;;10080822;28;20033;-64
2022/09/26 01:18:57;;;;;;;2.67;1.83;;;13.70;99.90;;;;;;10076037;28;20033;-63
2022/09/26 01:23:57;;;;;;;3.78;2.30;;;13.80;99.90;;;;;;10085988;28;20025;-64
2022/09/26 01:29:23;;;;;;;2.30;1.70;;;13.80;99.90;;;;;;10071837;28;20475;-64
2022/09/26 01:34:26;;;;;;;3.85;2.35;;;13.90;99.90;;;;;;10067668;28;20036;-63
2022/09/26 01:39:32;;;;;;;4.10;2.78;;;13.90;99.90;;;;;;10069135;28;20120;-64
2022/09/26 01:44:29;;;;;;;3.17;2.17;;;13.80;99.90;;;;;;10069153;28;20499;-64
2022/09/26 01:49:58;;;;;;;5.35;2.78;;;13.90;99.90;;;;;;10076897;28;20021;-65
2022/09/26 01:55:02;;;;;;;5.18;2.95;;;13.80;99.90;;;;;;10063423;28;20055;-63
2022/09/26 02:00:04;;;;;;;4.05;2.75;;;13.80;99.90;;;;;;10072514;28;20120;-64
2022/09/26 02:05:10;;;;;;;4.00;2.42;;;13.60;99.90;;;;;;10073713;28;20017;-65
2022/09/26 02:10:15;;;;;;;5.90;2.70;;;13.60;99.90;;;;;;10084109;28;20054;-66
2022/09/26 02:15:10;;;;;;;4.55;2.58;;;13.80;99.90;;;;;;10075999;28;20171;-65
2022/09/26 02:20:22;;;;;;;4.85;2.25;;;13.70;99.90;;;;;;10068412;28;20547;-63
2022/09/26 02:25:13;;;;;;;5.15;2.25;;;13.80;99.90;;;;;;10059313;28;20348;-64
2022/09/26 02:30:05;;;;;;;3.92;2.20;;;13.70;99.90;;;;;;10083884;28;20116;-63
2022/09/26 02:34:57;;;;;;;5.32;3.33;;;13.70;99.90;;;;;;10059665;28;20041;-63
2022/09/26 02:39:50;;;;;;;3.65;2.60;;;13.70;99.90;;;;;;10073689;28;20033;-63
2022/09/26 02:44:56;;;;;;;3.83;2.17;;;13.70;99.90;;;;;;10059093;28;20101;-63
2022/09/26 02:50:07;;;;;;;4.03;2.53;;;13.70;99.90;;;;;;10075385;28;20029;-62
2022/09/26 02:55:15;;;;;;;5.53;2.92;;;13.70;99.90;;;;;;10083428;28;20037;-62
2022/09/26 03:00:23;;;;;;;4.68;2.85;;;13.60;99.90;;;;;;10062562;28;20063;-63
2022/09/26 03:05:19;;;;;;;3.80;2.50;;;13.60;99.90;;;;;;10063755;28;20525;-64
2022/09/26 03:10:12;;;;;;;7.35;3.28;;;13.60;99.90;;;;;;10070816;28;20053;-64
2022/09/26 03:15:04;;;;;;;5.68;3.58;;;13.60;99.90;;;;;;10076411;28;20041;-65
2022/09/26 03:20:07;;;;;;;4.32;2.38;;;13.70;99.90;;;;;;10067309;28;20025;-64
2022/09/26 03:24:59;;;;;;;4.47;2.70;;;13.70;99.90;;;;;;10057695;28;20025;-63
2022/09/26 03:29:50;;;;;;;4.40;2.55;;;13.60;99.90;;;;;;10074398;28;20045;-63
2022/09/26 03:34:40;;;;;;;4.95;3.42;;;13.50;99.90;;;;;;10069990;28;20052;-61
2022/09/26 03:39:31;;;;;;;4.22;2.50;;;13.40;99.90;;;;;;10065030;28;20124;-63
2022/09/26 03:44:24;;;;;;;5.25;3.45;;;13.40;99.90;;;;;;10062147;28;20024;-60
2022/09/26 03:49:14;;;;;;;3.75;2.85;;;13.30;99.90;;;;;;10071230;28;20526;-62
2022/09/26 03:54:05;;;;;;;8.40;3.20;;;13.20;99.90;;;;;;10064079;28;20069;-61
2022/09/26 03:58:55;;;;;;;4.00;2.20;;;13.20;99.90;;;;;;10077752;28;20437;-62
2022/09/26 04:03:47;;;;;;;5.22;2.65;;;13.10;99.90;;;;;;10083796;28;20108;-63
2022/09/26 04:08:40;;;;;;;4.07;2.38;;;13.10;99.90;;;;;;10077827;28;20106;-62
2022/09/26 04:13:32;;;;;;;4.10;2.40;;;13.00;99.90;;;;;;10090897;28;20505;-62
2022/09/26 04:18:23;;;;;;;5.35;3.15;;;13.10;99.90;;;;;;10085396;28;20090;-62
2022/09/26 04:23:14;;;;;;;4.63;3.25;;;13.10;99.90;;;;;;10078988;28;20125;-60
2022/09/26 04:28:04;;;;;;;3.90;2.88;;;13.10;99.90;;;;;;10069584;28;20689;-62
2022/09/26 04:32:55;;;;;;;5.65;3.22;;;13.10;99.90;;;;;;10077216;28;20069;-60
2022/09/26 04:37:46;;;;;;;7.35;2.88;;;13.10;99.90;;;;;;10065215;28;20032;-63
2022/09/26 04:42:37;;;;;;;4.32;2.92;;;13.10;99.90;;;;;;10084324;28;20321;-64
2022/09/26 04:47:27;;;;;;;4.90;2.40;;;13.10;99.90;;;;;;10082900;28;20274;-62
2022/09/26 04:52:19;;;;;;;8.20;3.92;;;13.00;99.90;;;;;;10089657;28;20033;-65
2022/09/26 04:57:09;;;;;;;4.75;3.35;;;12.80;99.90;;;;;;10082402;28;20523;-64
2022/09/26 05:02:04;;;;;;;5.18;2.72;;;12.80;99.90;;;;;;10080702;28;20180;-62
2022/09/26 05:06:56;;;;;;;4.43;3.00;;;12.90;99.90;;;;;;10061072;28;20496;-61
2022/09/26 05:11:47;;;;;;;5.35;2.47;;;13.00;99.90;;;;;;10072279;28;20502;-62
2022/09/26 05:16:38;;;;;;;4.00;2.53;;;13.10;99.90;;;;;;10080275;28;20124;-62
2022/09/26 05:21:29;;;;;;;3.90;2.70;;;13.00;99.90;;;;;;10079934;28;20113;-63
2022/09/26 05:26:37;;;;;;;6.45;3.00;;;13.00;99.90;;;;;;10062067;28;20092;-63
2022/09/26 05:31:28;;;;;;;6.85;2.75;;;13.00;99.90;;;;;;10076332;28;20060;-61
2022/09/26 05:36:19;;;;;;;9.18;3.05;;;13.00;99.90;;;;;;10067076;28;20039;-64
2022/09/26 05:41:12;;;;;;;3.53;2.22;;;13.00;99.90;;;;;;10092980;28;20210;-64
2022/09/26 05:46:05;;;;;;;5.78;2.53;;;13.00;99.90;;;;;;10070358;28;20037;-64
2022/09/26 05:50:55;;;;;;;4.63;2.72;;;13.10;99.90;;;;;;10086111;28;20025;-63
2022/09/26 05:55:50;;;;;;;4.43;2.70;;;13.20;99.90;;;;;;10079295;28;20659;-64
2022/09/26 06:00:40;;;;;;;4.85;2.65;;;13.20;99.90;;;;;;10088310;28;20392;-65
2022/09/26 06:05:32;;;;;;;4.93;2.67;;;13.30;99.90;;;;;;10067041;28;20029;-63
2022/09/26 06:10:23;;;;;;;3.63;2.17;;;13.30;99.90;;;;;;10072292;28;20359;-65
2022/09/26 06:15:14;;;;;;;3.42;2.20;;;13.30;99.90;;;;;;10076133;28;20288;-64
2022/09/26 06:20:05;;;;;;;5.47;2.72;;;13.20;99.90;;;;;;10075956;28;20155;-65
2022/09/26 06:24:56;;;;;;;2.78;2.08;;;13.20;99.90;;;;;;10066624;28;20026;-65
2022/09/26 06:29:47;;;;;;;5.05;2.85;;;13.20;99.90;;;;;;10069568;28;20037;-65
2022/09/26 06:34:38;;;;;;;5.70;2.50;;;13.20;99.90;;;;;;10066781;28;20040;-62
2022/09/26 06:39:34;;;;;;;5.32;2.88;;;13.20;99.90;;;;;;10067619;28;20055;-64
2022/09/26 06:44:24;;;;;;;4.40;2.97;;;13.20;99.90;;;;;;10064801;28;20025;-65
2022/09/26 06:49:15;;;;;;;4.10;2.63;;;13.30;99.90;;;;;;10068335;28;20376;-67
2022/09/26 06:54:06;;;;;;;4.22;2.83;;;13.40;99.90;;;;;;10057980;28;20192;-65
2022/09/26 06:58:56;;;;;;;4.07;2.33;;;13.40;99.90;;;;;;10064952;28;20306;-65
2022/09/26 07:03:47;;;;;;;4.45;2.78;;;13.70;99.90;;;;;;10067506;28;20190;-66
2022/09/26 07:08:39;;;;;;;3.97;2.75;;;13.90;99.90;;;;;;10064582;28;20042;-67
2022/09/26 07:13:30;;;;;;;3.17;2.47;;;13.90;99.90;;;;;;10066961;28;20433;-65
2022/09/26 07:18:21;;;;;;;5.57;2.80;;;13.90;99.90;;;;;;10067271;28;20503;-63
2022/09/26 07:23:12;;;;;;;6.72;2.38;;;14.00;99.90;;;;;;10080351;28;20037;-64
2022/09/26 07:28:02;;;;;;;5.05;3.45;;;14.10;99.90;;;;;;10058717;28;20076;-65
2022/09/26 07:32:59;;;;;;;4.05;2.92;;;14.00;99.90;;;;;;10062148;28;20454;-63
2022/09/26 07:37:53;;;;;;;6.07;3.50;;;14.10;99.90;;;;;;10064220;28;20041;-65
2022/09/26 07:42:44;;;;;;;3.25;2.53;;;14.20;99.90;;;;;;10066097;28;20708;-64
2022/09/26 07:52:47;;;;;;;4.68;2.38;;;14.30;99.90;;;;;;10075252;28;20043;-64
2022/09/26 07:57:38;;;;;;;4.10;2.25;;;14.50;99.90;;;;;;10057854;28;20057;-64
2022/09/26 08:02:34;;;;;;;3.58;2.40;;;14.60;99.90;;;;;;10078687;28;20025;-64
2022/09/26 08:07:25;;;;;;;3.03;2.42;;;15.00;99.90;;;;;;10061559;28;20279;-64
2022/09/26 08:12:16;;;;;;;5.78;3.25;;;15.40;99.90;;;;;;10071028;28;20500;-64
2022/09/26 08:17:07;;;;;;;5.50;2.05;;;15.50;99.90;;;;;;10068180;28;20404;-64
2022/09/26 08:21:58;;;;;;;4.35;1.75;;;15.60;99.90;;;;;;10066778;28;20049;-66
2022/09/26 08:26:49;;;;;;;2.47;1.95;;;16.00;99.90;;;;;;10063463;28;20430;-66
2022/09/26 08:31:40;;;;;;;2.95;1.70;;;15.90;99.90;;;;;;10062922;28;20052;-66
2022/09/26 08:36:31;;;;;;;3.47;1.83;;;15.60;99.90;;;;;;10063950;28;20040;-63
2022/09/26 08:41:30;;;;;;;4.03;1.67;;;15.40;99.90;;;;;;10067741;28;20030;-66
2022/09/26 08:51:38;;;;;;;3.58;1.63;;;15.90;99.90;;;;;;10078404;28;20037;-66
2022/09/26 08:56:35;;;;;;;5.25;2.08;;;16.30;99.90;;;;;;10083982;28;20047;-63
2022/09/26 09:01:29;;;;;;;3.40;1.73;;;16.70;99.90;;;;;;10070705;28;20082;-62
2022/09/26 09:06:19;;;;;;;2.45;1.45;;;16.80;99.90;;;;;;10074774;28;20052;-67
2022/09/26 09:11:35;;;;;;;1.45;1.17;;;16.80;99.90;;;;;;10078348;28;20044;-65
2022/09/26 09:16:55;;;;;;;2.33;1.23;;;16.80;99.90;;;;;;10076380;28;20258;-65
2022/09/26 09:21:48;;;;;;;2.90;1.23;;;16.70;99.90;;;;;;10072931;28;20028;-62
2022/09/26 09:26:42;;;;;;;2.67;1.35;;;16.60;99.90;;;;;;10081503;28;20104;-63
2022/09/26 09:31:38;;;;;;;3.63;1.30;;;16.60;99.90;;;;;;10062072;28;20016;-63
2022/09/26 09:36:44;;;;;;;3.10;1.48;;;16.60;99.90;;;;;;10074651;28;20033;-64
2022/09/26 09:42:04;;;;;;;2.35;1.88;;;16.70;99.90;;;;;;10067184;28;20014;-63
2022/09/26 09:46:54;;;;;;;3.70;1.95;;;16.80;99.90;;;;;;10067212;28;20523;-62
2022/09/26 09:52:15;;;;;;;2.13;1.60;;;16.80;99.90;;;;;;10071825;28;20021;-70
2022/09/26 09:57:30;;;;;;;2.40;1.30;;;16.80;99.90;;;;;;10066508;28;20554;-67
2022/09/26 10:02:36;;;;;;;2.20;1.73;;;17.30;99.90;;;;;;10065880;28;20032;-65
2022/09/26 10:07:27;;;;;;;4.30;2.88;;;17.40;99.90;;;;;;10057269;28;20522;-63
2022/09/26 10:12:20;;;;;;;2.60;1.63;;;17.70;99.90;;;;;;10063014;28;20025;-63
2022/09/26 10:17:13;;;;;;;4.60;1.45;;;17.60;99.90;;;;;;10088858;28;20037;-65
2022/09/26 10:22:08;;;;;;;3.83;2.00;;;17.40;99.90;;;;;;10099378;28;20049;-67
2022/09/26 10:27:33;;;;;;;3.15;1.73;;;17.40;99.90;;;;;;10064991;28;20030;-67
2022/09/26 10:32:25;;;;;;;2.42;1.45;;;17.70;99.90;;;;;;10054945;28;20087;-64
2022/09/26 10:37:28;;;;;;;4.60;1.70;;;18.00;99.90;;;;;;10068964;28;20438;-65
2022/09/26 10:42:21;;;;;;;2.33;1.95;;;18.00;99.90;;;;;;10081213;28;20163;-67
2022/09/26 10:47:15;;;;;;;1.92;1.42;;;17.60;99.90;;;;;;10077057;28;20104;-64
2022/09/26 10:52:14;;;;;;;3.50;1.38;;;17.30;99.90;;;;;;10074480;28;20513;-66
2022/09/26 10:57:08;;;;;;;2.88;1.40;;;17.00;99.90;;;;;;10084944;28;20534;-65
2022/09/26 11:02:02;;;;;;;2.75;1.33;;;17.20;99.90;;;;;;10078445;28;20029;-64
2022/09/26 11:06:53;;;;;;;2.97;1.80;;;17.70;99.90;;;;;;10069329;28;20049;-65
2022/09/26 11:11:46;;;;;;;2.55;1.17;;;18.00;99.90;;;;;;10078605;28;20637;-63
2022/09/26 11:16:48;;;;;;;7.75;1.95;;;18.00;99.90;;;;;;10080171;28;20040;-63
2022/09/26 11:21:53;;;;;;;6.25;2.38;;;17.90;99.90;;;;;;10071071;28;20037;-65
2022/09/26 11:27:14;;;;;;;4.30;1.33;;;17.80;99.90;;;;;;10062406;28;20313;-64
2022/09/26 11:32:05;;;;;;;2.88;1.48;;;18.10;99.90;;;;;;10063774;28;20033;-63
2022/09/26 11:37:33;;;;;;;2.65;1.92;;;18.30;99.90;;;;;;10065059;28;20033;-65
2022/09/26 11:42:30;;;;;;;3.70;1.63;;;18.20;99.90;;;;;;10066775;28;20334;-65
2022/09/26 11:47:58;;;;;;;3.28;2.55;;;18.30;99.90;;;;;;10065700;28;20256;-64
2022/09/26 11:53:20;;;;;;;2.28;1.48;;;18.80;99.80;;;;;;10063350;28;20116;-65
2022/09/26 11:58:25;;;;;;;3.17;1.75;;;18.70;99.90;;;;;;10061018;28;20491;-64
2022/09/26 12:03:46;;;;;;;3.17;1.15;;;18.40;99.90;;;;;;10060984;28;20029;-65
2022/09/26 12:08:51;;;;;;;3.83;0.95;;;18.20;99.40;;;;;;10067037;28;20279;-64
2022/09/26 12:13:42;;;;;;;;;;;17.90;99.60;;;;;;10060502;28;20046;-66
2022/09/26 12:18:37;;;;;;;2.55;0.68;;;17.70;99.20;;;;;;10063345;28;19921;-65
2022/09/26 12:23:47;;;;;;;2.15;0.60;;;17.50;99.50;;;;;;10066488;28;20023;-66
2022/09/26 12:29:14;;;;;;;1.35;0.55;;;17.60;99.20;;;;;;10069360;28;20021;-63
2022/09/26 12:34:23;;;;;;;2.80;0.70;;;17.70;99.30;;;;;;10074400;28;20025;-65
2022/09/26 12:39:45;;;;;;;2.78;0.80;;;17.80;99.20;;;;;;10066219;28;20035;-64
2022/09/26 12:44:56;;;;;;;2.53;0.77;;;18.10;99.30;;;;;;10071570;28;20024;-64
2022/09/26 12:49:53;;;;;;;3.00;0.82;;;18.20;99.30;;;;;;10070558;28;20029;-65
2022/09/26 12:54:53;;;;;;;1.67;0.57;;;18.40;99.40;;;;;;10074701;28;20359;-63
2022/09/26 12:59:50;;;;;;;1.60;0.88;;;18.30;99.10;;;;;;10065069;28;20623;-63
2022/09/26 13:05:13;;;;;;;1.08;0.80;;;18.60;99.10;;;;;;10070008;28;20034;-62
2022/09/26 13:10:24;;;;;;;1.67;0.70;;;18.80;98.70;;;;;;10071669;28;20056;-63
2022/09/26 13:15:33;;;;;;;1.48;0.80;;;18.30;98.80;;;;;;10075248;28;20109;-65
2022/09/26 13:20:33;;;;;;;3.40;0.75;;;17.80;98.80;;;;;;10074046;28;20025;-65
2022/09/26 13:25:36;;;;;;;2.33;0.90;;;17.50;98.90;;;;;;10071654;28;20044;-65
2022/09/26 13:30:34;;;;;;;9.20;2.10;;;17.10;99.10;;;;;;10068655;28;20120;-66
2022/09/26 13:35:27;;;;;;;2.15;0.60;;;17.20;98.90;;;;;;10080924;28;20379;-64
2022/09/26 13:40:33;;;;;;;2.17;0.80;;;17.10;99.10;;;;;;10074292;28;20109;-62
2022/09/26 13:46:04;;;;;;;2.97;0.80;;;17.10;99.10;;;;;;10070171;28;20030;-64
2022/09/26 13:51:25;;;;;;;1.08;0.85;;;17.00;99.00;;;;;;10058131;28;20229;-64
2022/09/26 13:56:34;;;;;;;0.77;0.55;;;16.90;99.00;;;;;;10063968;28;20049;-65
2022/09/26 14:01:27;;;;;;;4.82;1.42;;;16.90;99.00;;;;;;10070958;28;20398;-63
2022/09/26 14:06:29;;;;;;;0.70;0.70;;;16.90;99.00;;;;;;10090848;28;20503;-63
2022/09/26 14:11:32;;;;;;;1.58;0.90;;;17.00;99.00;;;;;;10064992;28;20021;-63
2022/09/26 14:16:26;;;;;;;2.58;1.77;;;17.10;99.00;;;;;;10068371;28;20125;-64
2022/09/26 14:21:21;;;;;;;1.17;0.70;;;17.10;99.00;;;;;;10073871;28;20021;-63
2022/09/26 14:26:26;;;;;;;2.50;1.10;;;17.10;99.20;;;;;;10071615;28;20033;-66
2022/09/26 14:31:35;;;;;;;5.43;1.40;;;17.00;99.40;;;;;;10064323;28;20033;-63
2022/09/26 14:36:31;;;;;;;2.85;1.02;;;17.20;99.50;;;;;;10075492;28;20088;-64
2022/09/26 14:41:28;;;;;;;1.35;1.05;;;17.30;99.40;;;;;;10070424;28;20036;-65
2022/09/26 14:46:23;;;;;;;2.15;1.02;;;17.60;99.30;;;;;;10067867;28;20478;-69
2022/09/26 14:51:15;;;;;;;2.08;1.08;;;19.90;98.30;;;;;;10085867;28;20041;-64
2022/09/26 14:56:39;;;;;;;2.20;0.88;;;19.90;97.70;;;;;;10086837;28;20048;-64
2022/09/26 15:01:36;;;;;;;3.10;0.95;;;18.60;98.40;;;;;;10053567;28;20653;-65
2022/09/26 15:06:28;;;;;;;1.05;0.70;;;18.20;98.90;;;;;;10065949;28;20056;-66
2022/09/26 15:11:36;;;;;;;2.47;1.25;;;17.70;99.10;;;;;;10075275;28;20156;-65
2022/09/26 15:16:32;;;;;;;3.53;2.03;;;17.20;99.20;;;;;;10069151;28;20040;-66
2022/09/26 15:21:31;;;;;;;1.80;0.93;;;17.10;99.20;;;;;;10075946;28;20024;-65
2022/09/26 15:26:32;;;;;;;0.90;0.70;;;17.10;99.20;;;;;;10070794;28;20403;-64
2022/09/26 15:31:43;;;;;;;1.25;0.90;;;17.00;99.10;;;;;;10067708;28;20287;-65
2022/09/26 15:36:36;;;;;;;3.65;1.20;;;16.90;99.00;;;;;;10067336;28;20772;-64
2022/09/26 15:46:36;;;;;;;1.15;0.82;;;16.80;99.00;;;;;;10069618;28;20618;-64
2022/09/26 15:51:36;;;;;;;1.42;0.68;;;16.60;99.10;;;;;;10075343;28;20112;-65
2022/09/26 15:56:34;;;;;;;3.38;1.05;;;16.50;99.20;;;;;;10074270;28;20638;-64
2022/09/26 16:01:28;;;;;;;2.05;0.93;;;16.50;99.10;;;;;;10059842;28;20417;-62
2022/09/26 16:06:30;;;;;;;3.00;1.50;;;16.50;99.20;;;;;;10060185;28;20092;-65
2022/09/26 16:11:22;;;;;;;1.80;0.80;;;16.40;99.50;;;;;;10067514;28;20136;-63
2022/09/26 16:16:17;;;;;;;2.33;0.90;;;16.40;99.40;;;;;;10078308;28;20040;-64
2022/09/26 16:21:24;;;;;;;3.80;1.10;;;16.30;99.40;;;;;;10063997;28;20026;-62
2022/09/26 16:26:39;;;;;;;3.20;1.20;;;16.40;99.50;;;;;;10058004;28;20024;-63
2022/09/26 16:31:35;;;;;;;5.90;1.17;;;16.30;99.70;;;;;;10058836;28;20435;-64
2022/09/26 16:36:27;;;;;;;3.35;1.15;;;16.30;99.80;;;;;;10066273;28;20033;-64
2022/09/26 16:41:27;;;;;;;2.60;1.15;;;16.20;99.80;;;;;;10064266;28;20021;-63
2022/09/26 16:46:26;;;;;;;3.40;1.15;;;16.20;99.90;;;;;;10063738;28;20033;-66
2022/09/26 16:51:29;;;;;;;2.67;1.15;;;16.20;99.90;;;;;;10047207;28;20294;-63
2022/09/26 16:56:22;;;;;;;2.05;1.27;;;16.30;99.90;;;;;;10071418;28;20036;-65
2022/09/26 17:06:23;;;;;;;3.15;1.38;;;16.20;99.90;;;;;;10066876;28;20045;-65
2022/09/26 17:11:14;;;;;;;2.67;1.23;;;16.20;99.90;;;;;;10078876;28;20116;-63
2022/09/26 17:16:06;;;;;;;1.30;0.93;;;16.20;99.90;;;;;;10083907;28;20036;-62
2022/09/26 17:20:57;;;;;;;3.78;1.20;;;16.10;99.90;;;;;;10073384;28;20033;-61
2022/09/26 17:25:49;;;;;;;1.27;1.02;;;16.20;99.90;;;;;;10073650;28;20030;-61
2022/09/26 17:30:40;;;;;;;2.03;1.65;;;16.10;99.90;;;;;;10059664;28;20502;-62
2022/09/26 17:35:32;;;;;;;5.18;1.52;;;16.10;99.90;;;;;;10063883;28;20080;-63
2022/09/26 17:40:26;;;;;;;5.60;1.42;;;16.10;99.90;;;;;;10080867;28;20020;-64
2022/09/26 17:45:17;;;;;;;3.03;2.33;;;16.10;99.80;;;;;;10081413;28;20060;-62
2022/09/26 17:50:15;;;;;;;3.45;1.10;;;16.10;99.80;;;;;;10081635;28;20438;-66
2022/09/26 17:55:09;;;;;;;1.90;1.20;;;16.20;99.70;;;;;;10068752;28;20072;-63
2022/09/26 18:00:10;;;;;;;3.13;1.83;;;16.10;99.60;;;;;;10063986;28;20109;-64
2022/09/26 18:05:05;;;;;;;1.88;1.30;;;16.10;99.70;;;;;;10063424;28;20504;-64
2022/09/26 18:09:56;;;;;;;5.40;1.50;;;16.10;99.70;;;;;;10069432;28;20158;-64
2022/09/26 18:14:47;;;;;;;4.18;1.25;;;16.00;99.70;;;;;;10064480;28;20198;-64
2022/09/26 18:19:38;;;;;;;2.35;1.30;;;16.00;99.70;;;;;;10086227;28;20071;-66
2022/09/26 18:24:28;;;;;;;3.50;1.60;;;16.00;99.70;;;;;;10070716;28;20070;-64
2022/09/26 18:29:34;;;;;;;3.97;1.65;;;16.00;99.70;;;;;;10077147;28;20201;-65
2022/09/26 18:34:25;;;;;;;2.65;1.30;;;16.00;99.70;;;;;;10064022;28;20037;-68
2022/09/26 18:39:16;;;;;;;1.92;1.27;;;16.00;99.60;;;;;;10063676;28;20120;-67
2022/09/26 18:44:15;;;;;;;5.30;1.50;;;16.00;99.70;;;;;;10070222;28;20572;-67
2022/09/26 18:49:10;;;;;;;3.60;1.50;;;15.90;99.80;;;;;;10075150;28;20033;-68
2022/09/26 18:54:03;;;;;;;1.83;1.10;;;15.80;99.80;;;;;;10065831;28;20037;-67
2022/09/26 18:58:56;;;;;;;2.55;1.13;;;15.70;99.90;;;;;;10087513;28;20099;-63
2022/09/26 19:03:47;;;;;;;1.27;0.93;;;15.50;99.90;;;;;;10073923;28;20033;-65
2022/09/26 19:08:43;;;;;;;2.00;0.80;;;15.30;99.90;;;;;;10076832;28;20064;-65
2022/09/26 19:13:34;;;;;;;1.48;0.85;;;15.20;99.90;;;;;;10080340;28;20044;-66
2022/09/26 19:18:25;;;;;;;1.60;0.70;;;15.20;99.90;;;;;;10074645;28;20399;-68
2022/09/26 19:23:15;;;;;;;1.17;0.77;;;15.10;99.90;;;;;;10077824;28;20029;-67
2022/09/26 19:28:11;;;;;;;2.58;0.80;;;15.00;99.90;;;;;;10074245;28;20071;-70
2022/09/26 19:33:02;;;;;;;1.98;1.27;;;15.00;99.90;;;;;;10068908;28;20581;-66
2022/09/26 19:37:53;;;;;;;0.90;0.63;;;15.00;99.90;;;;;;10063198;28;20037;-66
2022/09/26 19:42:44;;;;;;;0.98;0.60;;;14.90;99.90;;;;;;10061744;28;20335;-69
2022/09/26 19:47:38;;;;;;;2.05;0.98;;;14.90;99.90;;;;;;10068817;28;20044;-66
2022/09/26 19:52:30;;;;;;;0.80;0.68;;;14.90;99.90;;;;;;10074412;28;20079;-70
2022/09/26 19:57:21;;;;;;;2.03;0.75;;;14.90;99.90;;;;;;10073292;28;20033;-66
2022/09/26 20:02:30;;;;;;;2.50;1.00;;;14.80;99.90;;;;;;10059685;28;20495;-68
2022/09/26 20:07:21;;;;;;;2.17;1.20;;;14.70;99.90;;;;;;10070107;28;20037;-70
2022/09/26 20:12:11;;;;;;;1.33;0.85;;;14.70;99.90;;;;;;10068344;28;20030;-70
2022/09/26 20:17:40;;;;;;;1.38;1.00;;;14.60;99.90;;;;;;10072697;28;20491;-71
2022/09/26 20:22:31;;;;;;;3.00;0.93;;;14.50;99.90;;;;;;10024449;28;20132;-69
2022/09/26 20:27:27;;;;;;;1.20;0.80;;;14.40;99.90;;;;;;10072666;28;20569;-69
2022/09/26 20:32:19;;;;;;;1.42;0.77;;;14.40;99.90;;;;;;10074456;28;20017;-70
2022/09/26 20:37:12;;;;;;;1.35;0.93;;;14.30;99.90;;;;;;10069492;28;20065;-70
2022/09/26 20:42:06;;;;;;;1.40;0.95;;;14.20;99.90;;;;;;10073860;28;20506;-68
2022/09/26 20:46:58;;;;;;;9.00;4.07;;;14.30;99.90;;;;;;10075063;28;20026;-65
2022/09/26 20:51:50;;;;;;;20.63;9.10;;;14.10;99.90;;;;;;10083807;28;20017;-64
2022/09/26 20:56:41;;;;;;;2.20;1.10;;;14.00;99.90;;;;;;10079128;28;20034;-65
2022/09/26 21:01:31;;;;;;;1.73;1.10;;;13.80;99.90;;;;;;10080394;28;20065;-63
2022/09/26 21:06:26;;;;;;;3.03;0.70;;;13.80;99.90;;;;;;10074577;28;20044;-65
2022/09/26 21:11:20;;;;;;;0.73;0.50;;;13.60;99.90;;;;;;10071615;28;20032;-64
2022/09/26 21:16:12;;;;;;;1.10;0.57;;;13.50;99.90;;;;;;10082410;28;20045;-65
2022/09/26 21:21:06;;;;;;;1.83;0.65;;;13.40;99.90;;;;;;10074096;28;20128;-65
2022/09/26 21:25:57;;;;;;;2.00;0.70;;;13.50;99.90;;;;;;10081567;28;20513;-68
2022/09/26 21:30:48;;;;;;;2.75;1.00;;;13.40;99.90;;;;;;10071782;28;20018;-63
2022/09/26 21:35:41;;;;;;;1.10;0.70;;;13.30;99.90;;;;;;10060318;28;20057;-66
2022/09/26 21:40:35;;;;;;;1.02;0.80;;;13.40;99.90;;;;;;10071953;28;20030;-67
2022/09/26 21:45:26;;;;;;;1.30;0.65;;;13.30;99.90;;;;;;10067397;28;20094;-66
2022/09/26 21:50:18;;;;;;;1.25;0.68;;;13.40;99.90;;;;;;10080364;28;20025;-66
2022/09/26 21:55:16;;;;;;;1.98;0.75;;;13.20;99.90;;;;;;10070474;28;20026;-66
2022/09/26 22:00:09;;;;;;;3.05;0.50;;;13.20;99.90;;;;;;10068459;28;20494;-67
2022/09/26 22:05:00;;;;;;;1.20;0.43;;;13.10;99.90;;;;;;10063866;28;20033;-66
2022/09/26 22:09:51;;;;;;;0.80;0.60;;;13.00;99.90;;;;;;10064337;28;20451;-68
2022/09/26 22:14:42;;;;;;;0.70;0.43;;;12.90;99.90;;;;;;10079651;28;20029;-67
2022/09/26 22:19:33;;;;;;;0.73;0.73;;;13.00;99.90;;;;;;10075969;28;20395;-68
2022/09/26 22:24:24;;;;;;;2.28;0.85;;;12.90;99.90;;;;;;10065850;28;20021;-68
2022/09/26 22:29:15;;;;;;;1.20;0.60;;;13.00;99.90;;;;;;10076288;28;20024;-67
2022/09/26 22:34:06;;;;;;;0.68;0.52;;;12.90;99.90;;;;;;10061043;28;20044;-68
2022/09/26 22:38:56;;;;;;;1.77;0.80;;;12.80;99.90;;;;;;10069785;28;20026;-67
2022/09/26 22:43:48;;;;;;;1.67;0.70;;;12.80;99.90;;;;;;10067310;28;20029;-67
2022/09/26 22:48:41;;;;;;;2.03;0.70;;;12.90;99.90;;;;;;10082502;28;20052;-68
2022/09/26 22:53:35;;;;;;;2.55;0.85;;;12.80;99.90;;;;;;10086190;28;20033;-67
2022/09/26 22:58:26;;;;;;;0.70;0.70;;;12.80;99.90;;;;;;10071146;28;20018;-70
2022/09/26 23:03:17;;;;;;;1.23;0.43;;;12.70;99.90;;;;;;10068745;28;20636;-68
2022/09/26 23:08:08;;;;;;;2.03;0.57;;;12.80;99.90;;;;;;10073418;28;20551;-67
2022/09/26 23:12:58;;;;;;;1.70;0.65;;;12.70;99.90;;;;;;10067429;28;20024;-67
2022/09/26 23:17:49;;;;;;;0.50;0.50;;;12.60;99.90;;;;;;10066448;28;20043;-67
2022/09/26 23:22:40;;;;;;;3.33;0.68;;;12.60;99.90;;;;;;10060745;28;20124;-67
2022/09/26 23:27:30;;;;;;;0.60;0.60;;;12.60;99.90;;;;;;10068322;28;20083;-68
2022/09/26 23:32:21;;;;;;;0.90;0.60;;;12.70;99.90;;;;;;10068384;28;20026;-67
2022/09/26 23:37:12;;;;;;;0.98;0.63;;;12.70;99.90;;;;;;10066347;28;20037;-69
2022/09/26 23:42:03;;;;;;;0.82;0.63;;;12.70;99.90;;;;;;10067710;28;20495;-68
2022/09/26 23:46:53;;;;;;;1.83;0.70;;;12.60;99.90;;;;;;10070944;28;20051;-66
2022/09/26 23:51:46;;;;;;;3.45;0.65;;;12.80;99.90;;;;;;10071704;28;20044;-70
2022/09/26 23:56:36;;;;;;;2.08;0.55;;;12.80;99.90;;;;;;10084384;28;20182;-67
